createdAt,value
2022-07-26T00:01:25.983Z,53.03
2022-07-26T00:03:58.794Z,53.81
2022-07-26T00:06:25.900Z,54.37
2022-07-26T00:08:52.573Z,54.59
2022-07-26T00:11:19.764Z,55.56
2022-07-26T00:13:47.021Z,55.48
2022-07-26T00:16:14.517Z,56.49
2022-07-26T00:18:41.257Z,56.24
2022-07-26T00:21:07.809Z,56.01
2022-07-26T00:23:35.384Z,55.81
2022-07-26T00:26:02.066Z,56.14
2022-07-26T00:28:28.612Z,55.69
2022-07-26T00:30:55.150Z,56.26
2022-07-26T00:33:21.702Z,57.08
2022-07-26T00:35:48.252Z,56.86
2022-07-26T00:38:14.823Z,56.93
2022-07-26T00:40:41.666Z,58.09
2022-07-26T00:43:08.157Z,58.30
2022-07-26T00:45:34.820Z,58.13
2022-07-26T00:48:01.832Z,57.87
2022-07-26T00:50:28.451Z,57.43
2022-07-26T00:52:55.282Z,56.38
2022-07-26T00:55:22.008Z,56.04
2022-07-26T00:57:48.661Z,55.83
2022-07-26T01:00:22.242Z,55.19
2022-07-26T01:02:48.931Z,55.18
2022-07-26T01:05:16.559Z,54.40
2022-07-26T01:07:43.728Z,54.78
2022-07-26T01:10:12.708Z,56.09
2022-07-26T01:12:43.284Z,56.15
2022-07-26T01:15:11.203Z,56.61
2022-07-26T01:17:38.657Z,56.06
2022-07-26T01:20:07.879Z,56.09
2022-07-26T01:22:34.392Z,57.08
2022-07-26T01:25:01.007Z,56.86
2022-07-26T01:27:33.545Z,57.55
2022-07-26T01:30:00.572Z,57.07
2022-07-26T01:32:27.209Z,57.10
2022-07-26T01:34:53.799Z,57.86
2022-07-26T01:37:20.340Z,57.75
2022-07-26T01:39:46.871Z,57.90
2022-07-26T01:42:13.457Z,58.49
2022-07-26T01:44:40.661Z,57.85
2022-07-26T01:47:07.580Z,58.76
2022-07-26T01:49:34.238Z,58.60
2022-07-26T01:52:00.878Z,58.24
2022-07-26T01:54:27.696Z,58.21
2022-07-26T01:56:54.231Z,57.46
2022-07-26T01:59:20.765Z,56.44
2022-07-26T02:01:47.438Z,55.17
2022-07-26T02:04:34.034Z,56.25
2022-07-26T02:07:00.547Z,55.82
2022-07-26T02:09:32.036Z,55.46
2022-07-26T02:12:05.094Z,56.54
2022-07-26T02:14:31.604Z,56.84
2022-07-26T02:17:00.255Z,56.90
2022-07-26T02:19:30.347Z,56.22
2022-07-26T02:21:57.698Z,55.95
2022-07-26T02:24:24.778Z,56.07
2022-07-26T02:26:51.458Z,55.63
2022-07-26T02:29:17.972Z,54.52
2022-07-26T02:31:48.540Z,54.15
2022-07-26T02:34:15.756Z,53.36
2022-07-26T02:36:42.340Z,53.64
2022-07-26T02:39:09.061Z,54.70
2022-07-26T02:41:38.096Z,54.57
2022-07-26T02:44:06.332Z,54.72
2022-07-26T02:46:33.189Z,54.92
2022-07-26T02:49:00.806Z,54.88
2022-07-26T02:51:28.554Z,55.51
2022-07-26T02:53:55.152Z,54.68
2022-07-26T02:56:21.719Z,55.11
2022-07-26T02:58:48.262Z,54.54
2022-07-26T03:01:15.128Z,54.83
2022-07-26T03:03:43.117Z,54.16
2022-07-26T03:06:11.378Z,54.84
2022-07-26T03:08:37.859Z,54.77
2022-07-26T03:11:09.001Z,54.75
2022-07-26T03:13:38.356Z,54.30
2022-07-26T03:16:05.358Z,54.82
2022-07-26T03:18:31.949Z,54.39
2022-07-26T03:20:58.651Z,55.37
2022-07-26T03:23:25.215Z,54.71
2022-07-26T03:25:51.756Z,55.53
2022-07-26T03:28:19.661Z,54.78
2022-07-26T03:30:46.447Z,55.37
2022-07-26T03:33:12.947Z,56.45
2022-07-26T03:35:39.482Z,55.86
2022-07-26T03:38:06.947Z,56.13
2022-07-26T03:40:33.795Z,56.08
2022-07-26T03:43:00.383Z,56.80
2022-07-26T03:45:26.921Z,56.78
2022-07-26T03:47:54.089Z,56.16
2022-07-26T03:50:20.632Z,55.15
2022-07-26T03:52:47.189Z,56.68
2022-07-26T03:55:32.625Z,58.57
2022-07-26T03:57:59.204Z,59.18
2022-07-26T04:00:26.200Z,59.67
2022-07-26T04:02:52.767Z,60.16
2022-07-26T04:05:23.391Z,60.23
2022-07-26T04:07:53.329Z,59.91
2022-07-26T04:10:21.030Z,57.77
2022-07-26T04:12:47.559Z,59.17
2022-07-26T04:15:16.156Z,59.73
2022-07-26T04:17:43.468Z,58.84
2022-07-26T04:20:11.423Z,59.27
2022-07-26T04:22:39.008Z,58.42
2022-07-26T04:25:07.111Z,59.21
2022-07-26T04:27:33.936Z,57.12
2022-07-26T04:30:00.539Z,57.48
2022-07-26T04:32:27.305Z,57.53
2022-07-26T04:34:53.890Z,57.00
2022-07-26T04:37:20.433Z,57.68
2022-07-26T04:39:50.429Z,57.98
2022-07-26T04:42:19.525Z,57.35
2022-07-26T04:44:46.019Z,58.94
2022-07-26T04:47:12.549Z,59.80
2022-07-26T04:49:40.664Z,59.24
2022-07-26T04:52:07.220Z,58.56
2022-07-26T04:54:33.703Z,59.02
2022-07-26T04:57:00.304Z,57.79
2022-07-26T04:59:26.859Z,57.27
2022-07-26T05:01:53.455Z,58.81
2022-07-26T05:04:20.043Z,58.60
2022-07-26T05:06:46.587Z,57.98
2022-07-26T05:09:13.285Z,58.38
2022-07-26T05:11:40.035Z,57.61
2022-07-26T05:14:06.775Z,57.03
2022-07-26T05:16:33.620Z,58.03
2022-07-26T05:19:05.758Z,57.51
2022-07-26T05:21:32.266Z,57.17
2022-07-26T05:23:58.832Z,57.25
2022-07-26T05:26:25.410Z,56.05
2022-07-26T05:28:51.878Z,55.84
2022-07-26T05:31:18.471Z,56.67
2022-07-26T05:33:45.045Z,56.08
2022-07-26T05:36:11.646Z,55.28
2022-07-26T05:38:38.490Z,55.66
2022-07-26T05:41:05.703Z,56.09
2022-07-26T05:43:41.380Z,55.26
2022-07-26T05:46:09.944Z,54.92
2022-07-26T05:48:36.809Z,54.02
2022-07-26T05:51:03.532Z,54.47
2022-07-26T05:53:30.067Z,54.39
2022-07-26T05:55:56.660Z,54.23
2022-07-26T05:58:23.159Z,53.29
2022-07-26T06:00:49.736Z,50.47
2022-07-26T06:03:22.218Z,48.27
2022-07-26T06:05:50.289Z,46.56
2022-07-26T06:08:17.843Z,46.15
2022-07-26T06:10:45.327Z,46.94
2022-07-26T06:13:12.157Z,47.58
2022-07-26T06:15:38.854Z,45.38
2022-07-26T06:18:06.714Z,44.92
2022-07-26T06:20:33.886Z,43.44
2022-07-26T06:23:00.948Z,43.26
2022-07-26T06:25:27.861Z,43.07
2022-07-26T06:27:54.422Z,45.07
2022-07-26T06:30:20.967Z,45.94
2022-07-26T06:32:47.575Z,46.21
2022-07-26T06:35:14.982Z,46.63
2022-07-26T06:37:42.980Z,47.14
2022-07-26T06:40:10.734Z,47.01
2022-07-26T06:42:38.143Z,44.82
2022-07-26T06:45:05.800Z,42.90
2022-07-26T06:47:32.427Z,42.77
2022-07-26T06:49:58.970Z,42.42
2022-07-26T06:52:28.142Z,42.46
2022-07-26T06:54:54.735Z,41.88
2022-07-26T06:57:21.559Z,42.31
2022-07-26T06:59:48.120Z,44.01
2022-07-26T07:02:14.685Z,44.42
2022-07-26T07:04:41.296Z,44.72
2022-07-26T07:07:08.504Z,44.06
2022-07-26T07:09:36.449Z,43.33
2022-07-26T07:12:08.790Z,44.33
2022-07-26T07:14:37.152Z,44.53
2022-07-26T07:17:03.892Z,46.12
2022-07-26T07:19:38.322Z,44.74
2022-07-26T07:22:06.201Z,43.95
2022-07-26T07:24:32.765Z,44.29
2022-07-26T07:27:02.213Z,45.12
2022-07-26T07:29:29.253Z,43.61
2022-07-26T07:31:56.499Z,43.89
2022-07-26T07:34:24.067Z,42.80
2022-07-26T07:36:51.534Z,42.51
2022-07-26T07:39:18.344Z,43.35
2022-07-26T07:41:45.913Z,42.77
2022-07-26T07:44:12.993Z,43.10
2022-07-26T07:46:39.687Z,42.71
2022-07-26T07:49:07.239Z,42.28
2022-07-26T07:51:34.190Z,42.68
2022-07-26T07:54:05.683Z,41.31
2022-07-26T07:56:32.749Z,41.49
2022-07-26T07:58:59.315Z,41.59
2022-07-26T08:01:39.570Z,41.21
2022-07-26T08:04:08.246Z,40.40
2022-07-26T08:06:34.921Z,42.06
2022-07-26T08:09:01.608Z,41.77
2022-07-26T08:11:30.514Z,41.62
2022-07-26T08:14:00.412Z,40.07
2022-07-26T08:16:26.992Z,40.71
2022-07-26T08:18:57.911Z,42.14
2022-07-26T08:21:28.341Z,40.96
2022-07-26T08:23:56.935Z,40.45
2022-07-26T08:26:24.966Z,40.86
2022-07-26T08:28:58.608Z,41.57
2022-07-26T08:31:27.167Z,39.97
2022-07-26T08:33:53.840Z,40.10
2022-07-26T08:36:20.374Z,40.25
2022-07-26T08:38:48.044Z,39.71
2022-07-26T08:41:16.747Z,39.45
2022-07-26T08:43:51.614Z,40.52
2022-07-26T08:46:24.742Z,41.23
2022-07-26T08:48:52.403Z,40.97
2022-07-26T08:51:22.691Z,40.74
2022-07-26T08:53:50.414Z,40.46
2022-07-26T08:56:16.967Z,39.22
2022-07-26T08:58:43.918Z,40.48
2022-07-26T09:01:15.200Z,39.07
2022-07-26T09:03:43.507Z,39.05
2022-07-26T09:06:20.429Z,38.52
2022-07-26T09:08:50.706Z,39.39
2022-07-26T09:11:33.608Z,39.35
2022-07-26T09:14:05.903Z,38.85
2022-07-26T09:16:37.290Z,39.90
2022-07-26T09:19:34.992Z,40.09
2022-07-26T09:22:10.694Z,38.67
2022-07-26T09:24:45.999Z,38.89
2022-07-26T09:27:15.667Z,39.22
2022-07-26T09:29:53.369Z,39.15
2022-07-26T09:32:22.953Z,38.66
2022-07-26T09:34:58.977Z,39.14
2022-07-26T09:37:37.052Z,38.47
2022-07-26T09:40:08.895Z,37.75
2022-07-26T09:42:36.316Z,37.88
2022-07-26T09:45:14.624Z,37.76
2022-07-26T09:47:41.179Z,37.96
2022-07-26T09:50:16.455Z,38.18
2022-07-26T09:53:12.676Z,38.66
2022-07-26T09:55:45.386Z,39.25
2022-07-26T09:58:16.122Z,39.44
2022-07-26T10:00:45.717Z,38.53
2022-07-26T10:03:12.708Z,38.07
2022-07-26T10:05:40.254Z,38.74
2022-07-26T10:08:07.905Z,38.87
2022-07-26T10:10:39.934Z,37.90
2022-07-26T10:13:08.633Z,38.10
2022-07-26T10:15:42.973Z,38.51
2022-07-26T10:18:16.659Z,39.81
2022-07-26T10:20:46.671Z,38.13
2022-07-26T10:23:36.152Z,38.18
2022-07-26T10:26:04.987Z,37.72
2022-07-26T10:28:34.455Z,37.84
2022-07-26T10:31:24.890Z,38.63
2022-07-26T10:33:53.954Z,38.33
2022-07-26T10:36:24.679Z,38.32
2022-07-26T10:39:02.015Z,38.41
2022-07-26T10:41:34.328Z,38.83
2022-07-26T10:44:33.876Z,38.45
2022-07-26T10:47:09.808Z,38.21
2022-07-26T10:49:56.859Z,38.29
2022-07-26T10:52:28.965Z,38.42
2022-07-26T10:55:03.381Z,37.78
2022-07-26T10:57:39.107Z,37.83
2022-07-26T11:00:26.287Z,37.89
2022-07-26T11:02:57.910Z,37.77
2022-07-26T11:05:30.922Z,38.22
2022-07-26T11:08:10.425Z,37.85
2022-07-26T11:10:38.952Z,37.92
2022-07-26T11:13:25.863Z,38.14
2022-07-26T11:16:09.147Z,38.04
2022-07-26T11:18:38.079Z,38.07
2022-07-26T11:21:13.199Z,38.25
2022-07-26T11:23:45.061Z,37.72
2022-07-26T11:26:18.900Z,38.84
2022-07-26T11:28:56.012Z,37.76
2022-07-26T11:31:55.618Z,37.95
2022-07-26T11:34:28.136Z,37.31
2022-07-26T11:36:57.193Z,38.01
2022-07-26T11:39:30.063Z,38.45
2022-07-26T11:41:58.565Z,39.44
2022-07-26T11:44:26.212Z,39.42
2022-07-26T11:46:53.303Z,38.82
2022-07-26T11:49:23.094Z,38.76
2022-07-26T11:51:57.684Z,39.01
2022-07-26T11:54:32.981Z,38.83
2022-07-26T11:57:00.776Z,39.22
2022-07-26T11:59:32.842Z,39.24
2022-07-26T12:02:00.553Z,39.82
2022-07-26T12:04:33.434Z,39.77
2022-07-26T12:07:03.302Z,39.67
2022-07-26T12:09:34.220Z,39.47
2022-07-26T12:12:06.115Z,39.83
2022-07-26T12:14:38.469Z,39.16
2022-07-26T12:17:13.672Z,39.63
2022-07-26T12:19:41.835Z,38.89
2022-07-26T12:22:16.626Z,39.20
2022-07-26T12:24:51.067Z,39.48
2022-07-26T12:27:21.163Z,38.99
2022-07-26T12:29:51.807Z,38.84
2022-07-26T12:32:23.548Z,38.88
2022-07-26T12:34:57.714Z,39.17
2022-07-26T12:37:33.680Z,38.97
2022-07-26T12:40:04.323Z,38.70
2022-07-26T12:42:34.649Z,39.02
2022-07-26T12:45:03.051Z,38.71
2022-07-26T12:47:29.808Z,39.83
2022-07-26T12:49:56.375Z,39.69
2022-07-26T12:52:24.288Z,39.58
2022-07-26T12:54:52.935Z,39.28
2022-07-26T12:57:20.215Z,39.30
2022-07-26T12:59:48.422Z,39.26
2022-07-26T13:02:17.204Z,40.98
2022-07-26T13:04:44.096Z,40.66
2022-07-26T13:07:10.818Z,40.63
2022-07-26T13:09:37.680Z,41.67
2022-07-26T13:12:06.333Z,41.76
2022-07-26T13:14:34.361Z,41.73
2022-07-26T13:17:01.772Z,42.72
2022-07-26T13:19:28.746Z,44.35
2022-07-26T13:21:57.014Z,44.25
2022-07-26T13:24:27.797Z,46.91
2022-07-26T13:26:56.297Z,47.26
2022-07-26T13:29:23.349Z,48.67
2022-07-26T13:31:51.023Z,49.34
2022-07-26T13:34:18.564Z,49.38
2022-07-26T13:36:45.590Z,49.24
2022-07-26T13:39:12.152Z,49.33
2022-07-26T13:41:38.843Z,48.71
2022-07-26T13:44:05.450Z,48.95
2022-07-26T13:46:33.633Z,49.00
2022-07-26T13:49:01.965Z,48.40
2022-07-26T13:51:52.877Z,48.84
2022-07-26T13:54:21.052Z,48.81
2022-07-26T13:56:48.378Z,48.85
2022-07-26T13:59:15.451Z,48.78
2022-07-26T14:01:43.339Z,49.17
2022-07-26T14:04:13.282Z,49.35
2022-07-26T14:06:40.279Z,49.80
2022-07-26T14:09:10.754Z,50.04
2022-07-26T14:11:38.539Z,49.60
2022-07-26T14:14:05.744Z,49.14
2022-07-26T14:16:32.993Z,50.28
2022-07-26T14:18:59.686Z,49.66
2022-07-26T14:21:27.591Z,49.50
2022-07-26T14:23:55.538Z,49.90
2022-07-26T14:26:22.409Z,50.16
2022-07-26T14:28:48.971Z,50.21
2022-07-26T14:31:16.342Z,50.33
2022-07-26T14:33:43.580Z,50.08
2022-07-26T14:36:10.219Z,49.93
2022-07-26T14:38:37.087Z,49.98
2022-07-26T14:41:03.651Z,50.49
2022-07-26T14:43:30.219Z,50.80
2022-07-26T14:45:57.023Z,50.90
2022-07-26T14:48:51.899Z,50.60
2022-07-26T14:51:10.410Z,50.54
2022-07-26T14:53:37.327Z,50.13
2022-07-26T14:56:04.098Z,50.53
2022-07-26T14:58:30.687Z,50.38
2022-07-26T15:00:57.836Z,49.86
2022-07-26T15:03:24.602Z,49.48
2022-07-26T15:05:51.184Z,50.80
2022-07-26T15:08:17.820Z,50.61
2022-07-26T15:10:44.503Z,50.23
2022-07-26T15:13:11.785Z,49.77
2022-07-26T15:15:38.295Z,50.08
2022-07-26T15:18:04.907Z,48.85
2022-07-26T15:20:31.748Z,50.32
2022-07-26T15:22:58.380Z,50.85
2022-07-26T15:25:24.931Z,50.12
2022-07-26T15:27:51.733Z,50.58
2022-07-26T15:30:19.116Z,49.80
2022-07-26T15:32:46.165Z,49.77
2022-07-26T15:35:14.940Z,49.95
2022-07-26T15:37:43.778Z,49.63
2022-07-26T15:40:12.099Z,49.67
2022-07-26T15:42:42.188Z,49.40
2022-07-26T15:45:11.570Z,50.15
2022-07-26T15:48:01.098Z,49.98
2022-07-26T15:50:26.540Z,49.52
2022-07-26T15:52:53.083Z,49.83
2022-07-26T15:55:20.761Z,49.77
2022-07-26T15:57:47.616Z,49.31
2022-07-26T16:00:15.671Z,49.52
2022-07-26T16:02:42.565Z,49.48
2022-07-26T16:05:10.248Z,50.28
2022-07-26T16:07:37.312Z,49.64
2022-07-26T16:10:04.817Z,49.82
2022-07-26T16:12:31.356Z,49.74
2022-07-26T16:14:57.925Z,50.03
2022-07-26T16:17:25.276Z,50.05
2022-07-26T16:19:52.900Z,50.52
2022-07-26T16:22:19.488Z,50.23
2022-07-26T16:24:46.120Z,50.53
2022-07-26T16:27:12.750Z,50.78
2022-07-26T16:29:39.261Z,50.56
2022-07-26T16:32:11.658Z,50.90
2022-07-26T16:34:38.724Z,50.48
2022-07-26T16:37:05.649Z,51.02
2022-07-26T16:39:32.382Z,50.12
2022-07-26T16:42:02.047Z,51.51
2022-07-26T16:44:33.031Z,51.00
2022-07-26T16:46:59.623Z,50.48
2022-07-26T16:49:26.409Z,50.61
2022-07-26T16:51:53.048Z,51.04
2022-07-26T16:54:20.623Z,51.65
2022-07-26T16:56:47.225Z,51.83
2022-07-26T16:59:14.414Z,52.13
2022-07-26T17:01:41.235Z,51.01
2022-07-26T17:04:07.798Z,50.94
2022-07-26T17:06:34.360Z,51.14
2022-07-26T17:09:00.873Z,51.23
2022-07-26T17:11:27.370Z,51.39
2022-07-26T17:13:53.974Z,51.09
2022-07-26T17:16:21.593Z,51.70
2022-07-26T17:18:51.442Z,51.87
2022-07-26T17:21:17.979Z,51.90
2022-07-26T17:23:44.513Z,52.31
2022-07-26T17:26:11.252Z,52.41
2022-07-26T17:28:37.898Z,52.91
2022-07-26T17:31:04.412Z,53.02
2022-07-26T17:33:31.015Z,53.04
2022-07-26T17:36:00.729Z,52.64
2022-07-26T17:38:30.090Z,53.22
2022-07-26T17:40:56.833Z,54.23
2022-07-26T17:43:23.408Z,55.25
2022-07-26T17:45:50.507Z,55.27
2022-07-26T17:48:17.107Z,56.40
2022-07-26T17:50:43.642Z,55.94
2022-07-26T17:55:36.792Z,56.50
2022-07-26T17:58:03.309Z,58.50
2022-07-26T18:00:29.930Z,58.63
2022-07-26T18:02:57.815Z,59.03
2022-07-26T18:05:32.088Z,60.34
2022-07-26T18:07:59.532Z,60.32
2022-07-26T18:10:27.612Z,60.48
2022-07-26T18:12:55.055Z,60.31
2022-07-26T18:15:21.982Z,61.25
2022-07-26T18:17:48.491Z,62.09
2022-07-26T18:20:15.050Z,60.82
2022-07-26T18:22:41.552Z,61.53
2022-07-26T18:25:12.748Z,61.73
2022-07-26T18:27:39.286Z,61.03
2022-07-26T18:30:06.527Z,62.25
2022-07-26T18:32:34.183Z,61.91
2022-07-26T18:35:00.831Z,62.30
2022-07-26T18:37:27.384Z,62.84
2022-07-26T18:39:57.771Z,63.32
2022-07-26T18:42:24.992Z,63.83
2022-07-26T18:44:52.782Z,63.52
2022-07-26T18:47:19.332Z,63.84
2022-07-26T18:49:46.100Z,63.30
2022-07-26T18:52:12.681Z,64.07
2022-07-26T18:54:40.063Z,64.19
2022-07-26T18:57:06.648Z,63.98
2022-07-26T18:59:33.163Z,62.79
2022-07-26T19:02:00.231Z,64.00
2022-07-26T19:04:27.674Z,63.70
2022-07-26T19:06:54.647Z,64.08
2022-07-26T19:09:21.240Z,63.48
2022-07-26T19:11:47.889Z,63.51
2022-07-26T19:14:14.409Z,63.35
2022-07-26T19:16:41.050Z,64.98
2022-07-26T19:19:07.650Z,64.68
2022-07-26T19:21:34.291Z,63.75
2022-07-26T19:24:00.828Z,64.25
2022-07-26T19:26:27.573Z,63.73
2022-07-26T19:28:54.297Z,63.81
2022-07-26T19:31:21.456Z,64.21
2022-07-26T19:33:47.999Z,64.31
2022-07-26T19:36:17.371Z,64.35
2022-07-26T19:38:53.789Z,63.40
2022-07-26T19:41:20.420Z,63.09
2022-07-26T19:43:47.002Z,63.79
2022-07-26T19:46:13.633Z,63.96
2022-07-26T19:48:40.522Z,63.94
2022-07-26T19:51:07.088Z,64.29
2022-07-26T19:53:33.640Z,64.97
2022-07-26T19:56:00.160Z,65.12
2022-07-26T19:58:29.136Z,65.77
2022-07-26T20:00:55.849Z,64.55
2022-07-26T20:03:22.397Z,64.53
2022-07-26T20:05:48.893Z,64.83
2022-07-26T20:08:15.468Z,64.60
2022-07-26T20:10:42.162Z,65.23
2022-07-26T20:13:08.696Z,64.60
2022-07-26T20:15:35.219Z,65.16
2022-07-26T20:18:01.734Z,64.68
2022-07-26T20:20:28.381Z,65.22
2022-07-26T20:22:55.041Z,65.28
2022-07-26T20:25:22.148Z,64.79
2022-07-26T20:27:51.353Z,64.72
2022-07-26T20:30:18.301Z,65.04
2022-07-26T20:32:44.931Z,65.45
2022-07-26T20:35:11.514Z,66.81
2022-07-26T20:37:38.148Z,65.85
2022-07-26T20:40:05.221Z,65.94
2022-07-26T20:42:34.438Z,65.66
2022-07-26T20:45:02.152Z,64.90
2022-07-26T20:47:28.767Z,65.92
2022-07-26T20:49:59.646Z,65.92
2022-07-26T20:52:29.327Z,66.04
2022-07-26T20:54:55.886Z,66.16
2022-07-26T20:57:23.540Z,66.68
2022-07-26T20:59:50.113Z,66.99
2022-07-26T21:02:16.772Z,68.45
2022-07-26T21:04:43.536Z,67.75
2022-07-26T21:07:10.098Z,68.31
2022-07-26T21:09:36.710Z,69.59
2022-07-26T21:12:04.008Z,69.08
2022-07-26T21:14:30.575Z,68.51
2022-07-26T21:16:57.251Z,68.48
2022-07-26T21:19:23.905Z,69.23
2022-07-26T21:21:50.524Z,70.21
2022-07-26T21:24:17.101Z,70.14
2022-07-26T21:26:44.617Z,70.73
2022-07-26T21:29:11.494Z,69.90
2022-07-26T21:31:38.230Z,70.51
2022-07-26T21:34:04.838Z,69.81
2022-07-26T21:36:31.526Z,69.47
2022-07-26T21:38:58.058Z,69.88
2022-07-26T21:41:24.737Z,70.88
2022-07-26T21:43:51.294Z,70.72
2022-07-26T21:46:17.924Z,69.82
2022-07-26T21:48:44.613Z,70.52
2022-07-26T21:51:11.303Z,70.94
2022-07-26T21:53:38.911Z,70.21
2022-07-26T21:56:05.746Z,69.71
2022-07-26T21:58:36.539Z,70.89
2022-07-26T22:01:06.662Z,69.50
2022-07-26T22:03:36.363Z,69.61
2022-07-26T22:06:06.233Z,69.97
2022-07-26T22:08:33.139Z,70.69
2022-07-26T22:11:00.128Z,70.75
2022-07-26T22:13:26.692Z,70.84
2022-07-26T22:15:53.245Z,70.46
2022-07-26T22:18:20.384Z,70.24
2022-07-26T22:20:49.171Z,69.82
2022-07-26T22:23:17.832Z,69.22
2022-07-26T22:25:45.100Z,70.96
2022-07-26T22:28:12.544Z,71.06
2022-07-26T22:30:45.351Z,70.63
2022-07-26T22:33:11.928Z,70.16
2022-07-26T22:35:38.770Z,70.63
2022-07-26T22:38:08.306Z,71.41
2022-07-26T22:40:35.660Z,71.33
2022-07-26T22:43:02.965Z,70.76
2022-07-26T22:45:30.560Z,71.29
2022-07-26T22:47:58.336Z,72.21
2022-07-26T22:50:25.371Z,72.36
2022-07-26T22:52:52.366Z,71.70
2022-07-26T22:55:19.089Z,71.33
2022-07-26T22:57:46.219Z,70.65
2022-07-26T23:00:16.094Z,71.67
2022-07-26T23:02:42.959Z,70.24
2022-07-26T23:05:10.530Z,69.31
2022-07-26T23:07:37.931Z,71.62
2022-07-26T23:10:08.858Z,71.35
2022-07-26T23:12:35.907Z,72.05
2022-07-26T23:15:02.678Z,73.75
2022-07-26T23:17:29.278Z,74.44
2022-07-26T23:19:55.835Z,74.96
2022-07-26T23:22:22.455Z,74.22
2022-07-26T23:24:49.031Z,74.52
2022-07-26T23:27:19.802Z,75.50
2022-07-26T23:29:48.344Z,75.77
2022-07-26T23:32:16.155Z,74.24
2022-07-26T23:34:42.954Z,74.30
2022-07-26T23:37:09.773Z,76.59
2022-07-26T23:39:36.369Z,76.74
2022-07-26T23:42:03.088Z,76.49
2022-07-26T23:44:30.952Z,76.63
2022-07-26T23:46:58.261Z,77.50
2022-07-26T23:49:25.071Z,76.50
2022-07-26T23:51:52.259Z,77.69
2022-07-26T23:54:18.796Z,77.35
2022-07-26T23:56:45.648Z,77.09
2022-07-26T23:59:13.015Z,78.27
